createdAt,value
2023-09-17T00:01:16.112Z,79.93
2023-09-17T00:03:52.671Z,79.87
2023-09-17T00:06:20.385Z,78.96
2023-09-17T00:08:47.312Z,79.17
2023-09-17T00:11:15.004Z,78.89
2023-09-17T00:13:42.318Z,78.88
2023-09-17T00:16:09.299Z,78.71
2023-09-17T00:18:36.474Z,78.75
2023-09-17T00:21:05.669Z,79.20
2023-09-17T00:23:32.704Z,79.66
2023-09-17T00:25:59.487Z,79.18
2023-09-17T00:28:26.713Z,78.59
2023-09-17T00:30:54.826Z,78.38
2023-09-17T00:33:21.623Z,78.75
2023-09-17T00:35:48.864Z,79.14
2023-09-17T00:38:15.629Z,78.92
2023-09-17T00:40:42.282Z,78.60
2023-09-17T00:43:09.753Z,78.71
2023-09-17T00:45:36.822Z,77.98
2023-09-17T00:48:05.420Z,79.28
2023-09-17T00:50:33.326Z,79.42
2023-09-17T00:53:01.134Z,78.94
2023-09-17T00:55:30.183Z,79.69
2023-09-17T00:57:59.072Z,80.23
2023-09-17T01:00:26.907Z,79.33
2023-09-17T01:02:55.032Z,79.55
2023-09-17T01:05:22.319Z,79.46
2023-09-17T01:07:50.329Z,79.40
2023-09-17T01:10:18.180Z,80.35
2023-09-17T01:12:45.070Z,80.77
2023-09-17T01:15:11.925Z,81.28
2023-09-17T01:17:38.720Z,80.23
2023-09-17T01:20:26.487Z,79.81
2023-09-17T01:23:09.101Z,80.12
2023-09-17T01:25:47.074Z,80.15
2023-09-17T01:28:14.406Z,80.38
2023-09-17T01:30:42.289Z,80.06
2023-09-17T01:33:12.778Z,80.94
2023-09-17T01:36:06.221Z,80.47
2023-09-17T01:38:40.582Z,81.70
2023-09-17T01:41:08.512Z,81.38
2023-09-17T01:43:38.639Z,81.19
2023-09-17T01:46:06.460Z,80.71
2023-09-17T01:48:33.649Z,80.69
2023-09-17T01:51:01.363Z,80.62
2023-09-17T01:53:28.900Z,81.16
2023-09-17T01:55:57.039Z,81.35
2023-09-17T01:58:24.272Z,81.09
2023-09-17T02:00:53.204Z,81.20
2023-09-17T02:03:20.705Z,81.76
2023-09-17T02:05:48.007Z,82.09
2023-09-17T02:08:14.739Z,80.99
2023-09-17T02:10:41.538Z,81.53
2023-09-17T02:13:08.715Z,82.31
2023-09-17T02:15:35.408Z,81.63
2023-09-17T02:18:02.407Z,81.17
2023-09-17T02:20:29.481Z,81.54
2023-09-17T02:22:56.318Z,82.77
2023-09-17T02:25:23.387Z,82.91
2023-09-17T02:27:50.642Z,81.69
2023-09-17T02:30:17.240Z,82.23
2023-09-17T02:32:44.670Z,81.61
2023-09-17T02:35:11.909Z,81.45
2023-09-17T02:37:39.473Z,81.89
2023-09-17T02:40:09.448Z,81.55
2023-09-17T02:42:37.581Z,82.13
2023-09-17T02:45:06.503Z,82.36
2023-09-17T02:47:36.293Z,82.54
2023-09-17T02:50:03.701Z,81.12
2023-09-17T02:52:30.901Z,81.15
2023-09-17T02:54:57.677Z,80.66
2023-09-17T02:57:24.361Z,80.72
2023-09-17T02:59:52.373Z,80.76
2023-09-17T03:02:20.481Z,81.39
2023-09-17T03:04:47.379Z,81.31
2023-09-17T03:07:15.651Z,80.82
2023-09-17T03:09:43.184Z,81.19
2023-09-17T03:12:11.399Z,81.32
2023-09-17T03:14:39.427Z,81.33
2023-09-17T03:17:07.112Z,82.12
2023-09-17T03:19:34.198Z,82.68
2023-09-17T03:22:03.149Z,82.41
2023-09-17T03:24:29.876Z,81.92
2023-09-17T03:26:57.099Z,82.18
2023-09-17T03:29:25.039Z,81.69
2023-09-17T03:31:52.923Z,81.96
2023-09-17T03:34:20.190Z,82.28
2023-09-17T03:36:47.358Z,81.94
2023-09-17T03:39:14.022Z,81.70
2023-09-17T03:41:41.402Z,82.07
2023-09-17T03:44:10.473Z,82.16
2023-09-17T03:46:38.359Z,81.69
2023-09-17T03:49:05.165Z,81.99
2023-09-17T03:51:32.446Z,81.92
2023-09-17T03:54:00.361Z,81.52
2023-09-17T03:56:27.710Z,81.25
2023-09-17T03:58:54.960Z,82.10
2023-09-17T04:01:22.957Z,82.09
2023-09-17T04:03:50.668Z,81.63
2023-09-17T04:06:18.994Z,81.99
2023-09-17T04:08:45.815Z,81.95
2023-09-17T04:11:16.391Z,81.63
2023-09-17T04:13:43.663Z,81.24
2023-09-17T04:16:11.176Z,81.25
2023-09-17T04:18:37.995Z,81.11
2023-09-17T04:21:04.877Z,81.65
2023-09-17T04:23:31.685Z,81.69
2023-09-17T04:25:58.369Z,80.76
2023-09-17T04:28:25.357Z,81.05
2023-09-17T04:30:52.068Z,80.82
2023-09-17T04:33:20.204Z,81.12
2023-09-17T04:35:47.003Z,80.98
2023-09-17T04:38:13.755Z,80.54
2023-09-17T04:40:41.496Z,79.93
2023-09-17T04:43:09.980Z,80.40
2023-09-17T04:45:39.554Z,80.22
2023-09-17T04:48:29.582Z,79.68
2023-09-17T04:50:56.785Z,79.64
2023-09-17T04:53:23.537Z,79.61
2023-09-17T04:55:50.405Z,79.49
2023-09-17T04:58:20.424Z,79.22
2023-09-17T05:00:48.280Z,78.97
2023-09-17T05:03:15.821Z,79.29
2023-09-17T05:05:43.074Z,78.44
2023-09-17T05:08:09.701Z,77.96
2023-09-17T05:10:36.695Z,77.36
2023-09-17T05:13:04.322Z,76.67
2023-09-17T05:15:30.967Z,76.54
2023-09-17T05:17:57.983Z,75.88
2023-09-17T05:20:24.942Z,75.65
2023-09-17T05:22:51.868Z,75.40
2023-09-17T05:25:18.977Z,74.82
2023-09-17T05:27:46.073Z,74.68
2023-09-17T05:30:13.954Z,74.14
2023-09-17T05:32:40.705Z,73.74
2023-09-17T05:35:08.450Z,73.59
2023-09-17T05:37:35.567Z,73.64
2023-09-17T05:40:04.244Z,73.47
2023-09-17T05:42:31.812Z,73.02
2023-09-17T05:44:58.743Z,72.74
2023-09-17T05:47:25.429Z,72.52
2023-09-17T05:49:52.263Z,72.21
2023-09-17T05:52:19.003Z,72.03
2023-09-17T05:54:46.006Z,71.86
2023-09-17T05:57:12.709Z,71.70
2023-09-17T05:59:39.594Z,71.79
2023-09-17T06:02:09.915Z,71.79
2023-09-17T06:04:36.652Z,71.55
2023-09-17T06:07:04.227Z,71.53
2023-09-17T06:09:31.985Z,71.68
2023-09-17T06:11:58.635Z,71.37
2023-09-17T06:14:25.584Z,71.26
2023-09-17T06:16:57.914Z,71.12
2023-09-17T06:19:27.617Z,71.02
2023-09-17T06:21:55.038Z,70.26
2023-09-17T06:24:22.139Z,69.39
2023-09-17T06:26:48.760Z,69.45
2023-09-17T06:29:16.366Z,69.74
2023-09-17T06:31:43.797Z,69.61
2023-09-17T06:34:11.249Z,69.15
2023-09-17T06:36:37.870Z,68.66
2023-09-17T06:39:07.054Z,68.18
2023-09-17T06:41:36.817Z,67.97
2023-09-17T06:44:05.349Z,67.80
2023-09-17T06:46:32.771Z,67.87
2023-09-17T06:48:59.848Z,67.61
2023-09-17T06:51:26.726Z,67.09
2023-09-17T06:53:53.751Z,66.63
2023-09-17T06:56:24.158Z,66.42
2023-09-17T06:58:51.202Z,65.78
2023-09-17T07:01:19.468Z,65.69
2023-09-17T07:03:46.450Z,65.03
2023-09-17T07:06:13.791Z,64.41
2023-09-17T07:08:40.443Z,63.92
2023-09-17T07:11:07.203Z,63.38
2023-09-17T07:13:34.538Z,62.99
2023-09-17T07:16:01.699Z,61.80
2023-09-17T07:18:30.868Z,60.49
2023-09-17T07:20:57.982Z,59.57
2023-09-17T07:23:26.014Z,57.60
2023-09-17T07:25:52.778Z,56.88
2023-09-17T07:28:20.589Z,53.89
2023-09-17T07:30:47.208Z,49.58
2023-09-17T07:33:13.861Z,47.79
2023-09-17T07:35:40.530Z,48.66
2023-09-17T07:38:07.138Z,47.90
2023-09-17T07:40:34.051Z,47.91
2023-09-17T07:43:01.880Z,48.15
2023-09-17T07:45:28.516Z,47.37
2023-09-17T07:47:55.157Z,45.67
2023-09-17T07:50:22.042Z,41.63
2023-09-17T07:52:48.865Z,38.48
2023-09-17T07:55:17.263Z,35.27
2023-09-17T07:57:44.060Z,34.14
2023-09-17T08:00:12.878Z,31.69
2023-09-17T08:02:39.935Z,29.78
2023-09-17T08:05:07.860Z,30.56
2023-09-17T08:07:36.834Z,29.26
2023-09-17T08:10:04.232Z,28.98
2023-09-17T08:12:33.482Z,29.44
2023-09-17T08:15:00.256Z,29.53
2023-09-17T08:17:27.448Z,27.51
2023-09-17T08:19:54.839Z,26.26
2023-09-17T08:22:22.896Z,27.58
2023-09-17T08:24:49.666Z,27.41
2023-09-17T08:27:17.570Z,26.85
2023-09-17T08:29:44.406Z,26.60
2023-09-17T08:32:11.713Z,26.18
2023-09-17T08:34:38.506Z,24.40
2023-09-17T08:37:05.411Z,24.72
2023-09-17T08:39:32.040Z,23.96
2023-09-17T08:42:00.474Z,23.36
2023-09-17T08:44:28.397Z,22.84
2023-09-17T08:46:57.159Z,23.40
2023-09-17T08:49:24.233Z,23.69
2023-09-17T08:51:55.913Z,23.54
2023-09-17T08:54:26.377Z,23.83
2023-09-17T08:56:57.311Z,23.81
2023-09-17T08:59:28.751Z,25.19
2023-09-17T09:01:57.786Z,26.18
2023-09-17T09:04:26.051Z,27.61
2023-09-17T09:06:55.108Z,25.89
2023-09-17T09:09:24.327Z,24.93
2023-09-17T09:11:51.488Z,23.71
2023-09-17T09:14:18.219Z,22.08
2023-09-17T09:16:45.477Z,22.36
2023-09-17T09:19:12.697Z,22.19
2023-09-17T09:21:40.321Z,21.56
2023-09-17T09:24:08.629Z,20.09
2023-09-17T09:26:37.794Z,20.38
2023-09-17T09:29:05.778Z,19.31
2023-09-17T09:31:34.267Z,19.38
2023-09-17T09:34:03.391Z,18.95
2023-09-17T09:36:33.617Z,19.75
2023-09-17T09:39:01.701Z,19.25
2023-09-17T09:41:30.096Z,19.48
2023-09-17T09:43:57.466Z,19.53
2023-09-17T09:46:25.464Z,18.77
2023-09-17T09:48:52.780Z,19.69
2023-09-17T09:51:21.622Z,22.00
2023-09-17T09:53:49.213Z,23.54
2023-09-17T09:56:16.357Z,23.88
2023-09-17T09:58:44.918Z,24.50
2023-09-17T10:01:15.311Z,25.52
2023-09-17T10:03:42.508Z,26.16
2023-09-17T10:06:10.514Z,27.23
2023-09-17T10:08:40.011Z,27.78
2023-09-17T10:11:10.051Z,27.32
2023-09-17T10:13:38.073Z,25.18
2023-09-17T10:16:06.418Z,22.85
2023-09-17T10:18:35.932Z,21.80
2023-09-17T10:21:03.192Z,21.59
2023-09-17T10:23:31.826Z,20.79
2023-09-17T10:26:00.137Z,19.62
2023-09-17T10:28:28.333Z,18.68
2023-09-17T10:30:57.240Z,18.29
2023-09-17T10:33:27.821Z,17.85
2023-09-17T10:35:57.748Z,17.66
2023-09-17T10:38:27.406Z,16.87
2023-09-17T10:40:56.995Z,17.10
2023-09-17T10:43:26.025Z,17.10
2023-09-17T10:45:57.276Z,17.27
2023-09-17T10:48:27.705Z,17.26
2023-09-17T10:50:58.419Z,17.93
2023-09-17T10:53:27.281Z,18.67
2023-09-17T10:56:08.658Z,19.79
2023-09-17T10:58:39.466Z,20.07
2023-09-17T11:01:09.251Z,21.71
2023-09-17T11:03:40.611Z,22.90
2023-09-17T11:06:17.456Z,24.56
2023-09-17T11:08:46.119Z,25.18
2023-09-17T11:11:15.489Z,25.86
2023-09-17T11:13:49.401Z,27.07
2023-09-17T11:16:16.474Z,27.98
2023-09-17T11:19:19.219Z,29.04
2023-09-17T11:22:01.040Z,30.37
2023-09-17T11:24:28.445Z,31.63
2023-09-17T11:27:01.766Z,31.54
2023-09-17T11:29:41.997Z,31.97
2023-09-17T11:32:09.739Z,32.45
2023-09-17T11:34:41.172Z,32.76
2023-09-17T11:37:08.112Z,32.88
2023-09-17T11:39:36.937Z,32.68
2023-09-17T11:42:14.189Z,33.50
2023-09-17T11:44:44.313Z,33.62
2023-09-17T11:47:13.432Z,33.46
2023-09-17T11:49:40.884Z,33.88
2023-09-17T11:52:12.545Z,34.24
2023-09-17T11:54:51.441Z,35.01
2023-09-17T11:57:25.974Z,35.11
2023-09-17T11:59:54.676Z,35.25
2023-09-17T12:02:21.549Z,35.24
2023-09-17T12:04:49.838Z,35.01
2023-09-17T12:07:16.924Z,34.99
2023-09-17T12:10:05.805Z,34.40
2023-09-17T12:12:35.236Z,34.32
2023-09-17T12:15:05.523Z,35.08
2023-09-17T12:17:43.408Z,34.36
2023-09-17T12:20:57.767Z,31.85
2023-09-17T12:24:07.278Z,28.02
2023-09-17T12:26:59.435Z,28.83
2023-09-17T12:29:29.375Z,29.27
2023-09-17T12:31:56.650Z,28.69
2023-09-17T12:34:23.401Z,27.18
2023-09-17T12:36:50.115Z,26.93
2023-09-17T12:39:16.862Z,26.55
2023-09-17T12:41:44.187Z,26.25
2023-09-17T12:44:12.958Z,27.56
2023-09-17T12:46:40.211Z,28.66
2023-09-17T12:49:08.099Z,29.21
2023-09-17T12:51:38.269Z,31.43
2023-09-17T12:54:06.558Z,31.23
2023-09-17T12:56:33.905Z,32.65
2023-09-17T12:59:01.426Z,33.38
2023-09-17T13:01:34.461Z,31.43
2023-09-17T13:04:07.250Z,28.50
2023-09-17T13:06:35.877Z,27.65
2023-09-17T13:09:03.411Z,25.69
2023-09-17T13:11:30.856Z,24.33
2023-09-17T13:13:58.893Z,25.22
2023-09-17T13:16:26.365Z,27.88
2023-09-17T13:18:53.354Z,29.91
2023-09-17T13:21:20.906Z,30.51
2023-09-17T13:23:49.332Z,32.22
2023-09-17T13:26:16.672Z,32.45
2023-09-17T13:28:43.698Z,33.26
2023-09-17T13:31:11.507Z,34.19
2023-09-17T13:33:39.377Z,34.21
2023-09-17T13:36:10.368Z,33.48
2023-09-17T13:38:42.175Z,32.76
2023-09-17T13:41:08.869Z,33.18
2023-09-17T13:43:35.940Z,33.06
2023-09-17T13:46:03.242Z,33.51
2023-09-17T13:48:31.097Z,33.67
2023-09-17T13:50:57.711Z,33.65
2023-09-17T13:53:24.512Z,34.91
2023-09-17T13:55:51.284Z,36.04
2023-09-17T13:58:18.601Z,35.84
2023-09-17T14:00:45.475Z,36.47
2023-09-17T14:03:16.530Z,36.79
2023-09-17T14:05:44.450Z,36.96
2023-09-17T14:08:11.885Z,37.41
2023-09-17T14:10:39.656Z,38.28
2023-09-17T14:13:06.518Z,39.80
2023-09-17T14:15:34.975Z,40.71
2023-09-17T14:18:02.477Z,40.70
2023-09-17T14:20:30.076Z,41.09
2023-09-17T14:22:57.062Z,41.38
2023-09-17T14:25:24.131Z,42.08
2023-09-17T14:27:51.024Z,42.66
2023-09-17T14:30:22.344Z,42.27
2023-09-17T14:32:51.841Z,41.88
2023-09-17T14:35:18.994Z,41.98
2023-09-17T14:37:47.894Z,41.89
2023-09-17T14:40:16.344Z,42.12
2023-09-17T14:42:43.632Z,42.30
2023-09-17T14:45:10.567Z,42.20
2023-09-17T14:47:39.501Z,42.46
2023-09-17T14:50:08.889Z,42.59
2023-09-17T14:52:36.584Z,42.81
2023-09-17T14:55:05.208Z,44.08
2023-09-17T14:57:34.448Z,44.03
2023-09-17T15:00:01.156Z,43.32
2023-09-17T15:02:28.916Z,43.48
2023-09-17T15:04:56.567Z,43.65
2023-09-17T15:07:23.823Z,43.98
2023-09-17T15:09:51.320Z,44.52
2023-09-17T15:12:18.136Z,44.99
2023-09-17T15:14:44.930Z,46.31
2023-09-17T15:17:11.742Z,48.26
2023-09-17T15:19:38.667Z,47.40
2023-09-17T15:22:06.320Z,46.46
2023-09-17T15:24:33.300Z,46.67
2023-09-17T15:27:00.839Z,48.18
2023-09-17T15:29:29.911Z,49.73
2023-09-17T15:31:56.808Z,50.07
2023-09-17T15:34:24.824Z,49.49
2023-09-17T15:36:52.512Z,50.77
2023-09-17T15:39:19.653Z,51.07
2023-09-17T15:41:46.351Z,51.61
2023-09-17T15:44:16.020Z,51.74
2023-09-17T15:46:43.767Z,53.07
2023-09-17T15:49:10.592Z,52.80
2023-09-17T15:51:37.516Z,52.96
2023-09-17T15:54:04.849Z,52.31
2023-09-17T15:56:31.689Z,53.29
2023-09-17T15:58:58.592Z,54.04
2023-09-17T16:01:25.396Z,51.54
2023-09-17T16:03:52.187Z,51.16
2023-09-17T16:06:23.601Z,51.51
2023-09-17T16:08:53.683Z,51.09
2023-09-17T16:11:20.952Z,51.45
2023-09-17T16:13:47.674Z,51.35
2023-09-17T16:16:14.870Z,52.75
2023-09-17T16:18:42.518Z,55.24
2023-09-17T16:21:11.569Z,56.25
2023-09-17T16:23:38.417Z,56.99
2023-09-17T16:26:05.142Z,56.53
2023-09-17T16:28:31.848Z,57.31
2023-09-17T16:30:58.484Z,58.22
2023-09-17T16:33:25.352Z,56.94
2023-09-17T16:35:52.071Z,57.47
2023-09-17T16:38:20.248Z,57.08
2023-09-17T16:40:47.743Z,57.19
2023-09-17T16:43:16.051Z,58.81
2023-09-17T16:45:44.138Z,59.38
2023-09-17T16:48:11.448Z,58.65
2023-09-17T16:50:38.142Z,59.06
2023-09-17T16:53:04.998Z,58.49
2023-09-17T16:55:31.808Z,58.64
2023-09-17T16:57:58.437Z,59.52
2023-09-17T17:00:25.472Z,61.70
2023-09-17T17:02:52.691Z,61.50
2023-09-17T17:05:20.034Z,62.43
2023-09-17T17:07:46.915Z,62.05
2023-09-17T17:10:15.550Z,62.92
2023-09-17T17:12:42.412Z,62.25
2023-09-17T17:15:09.231Z,63.09
2023-09-17T17:17:36.433Z,62.53
2023-09-17T17:20:04.329Z,62.95
2023-09-17T17:22:42.738Z,64.87
2023-09-17T17:25:10.038Z,65.54
2023-09-17T17:27:36.732Z,65.95
2023-09-17T17:30:10.006Z,64.04
2023-09-17T17:32:45.442Z,64.07
2023-09-17T17:35:14.210Z,65.16
2023-09-17T17:37:42.332Z,65.13
2023-09-17T17:40:09.577Z,65.25
2023-09-17T17:42:36.493Z,65.24
2023-09-17T17:45:03.964Z,65.00
2023-09-17T17:47:34.533Z,66.67
2023-09-17T17:50:01.418Z,68.67
2023-09-17T17:52:28.264Z,68.26
2023-09-17T17:54:55.027Z,68.63
2023-09-17T17:57:23.562Z,68.83
2023-09-17T17:59:55.614Z,69.87
2023-09-17T18:02:22.504Z,69.31
2023-09-17T18:04:49.271Z,69.64
2023-09-17T18:07:16.617Z,70.22
2023-09-17T18:09:45.050Z,69.88
2023-09-17T18:12:11.984Z,69.79
2023-09-17T18:14:38.755Z,69.80
2023-09-17T18:17:05.644Z,69.38
2023-09-17T18:19:32.519Z,69.03
2023-09-17T18:22:01.298Z,69.10
2023-09-17T18:24:29.267Z,70.33
2023-09-17T18:26:56.334Z,70.69
2023-09-17T18:29:27.800Z,71.07
2023-09-17T18:31:56.572Z,70.18
2023-09-17T18:34:24.437Z,70.95
2023-09-17T18:36:51.185Z,71.38
2023-09-17T18:39:19.701Z,71.40
2023-09-17T18:41:47.442Z,70.89
2023-09-17T18:44:15.067Z,71.64
2023-09-17T18:46:41.824Z,73.14
2023-09-17T18:49:10.943Z,72.81
2023-09-17T18:51:38.828Z,72.55
2023-09-17T18:54:05.621Z,72.08
2023-09-17T18:56:35.460Z,72.22
2023-09-17T18:59:02.816Z,72.02
2023-09-17T19:01:30.229Z,71.51
2023-09-17T19:03:57.171Z,71.54
2023-09-17T19:06:24.836Z,72.34
2023-09-17T19:08:51.920Z,72.68
2023-09-17T19:11:19.761Z,71.70
2023-09-17T19:13:49.384Z,72.54
2023-09-17T19:16:16.647Z,74.02
2023-09-17T19:18:43.920Z,74.26
2023-09-17T19:21:14.697Z,73.13
2023-09-17T19:23:42.869Z,73.07
2023-09-17T19:26:11.440Z,74.34
2023-09-17T19:28:39.416Z,73.58
2023-09-17T19:31:06.424Z,73.35
2023-09-17T19:33:33.830Z,75.15
2023-09-17T19:36:01.059Z,75.47
2023-09-17T19:38:31.223Z,74.37
2023-09-17T19:40:58.279Z,74.64
2023-09-17T19:43:25.197Z,74.82
2023-09-17T19:45:56.456Z,74.81
2023-09-17T19:48:24.474Z,74.33
2023-09-17T19:50:51.361Z,74.48
2023-09-17T19:53:20.860Z,75.61
2023-09-17T19:55:47.773Z,75.54
2023-09-17T19:58:15.225Z,75.20
2023-09-17T20:00:42.149Z,75.66
2023-09-17T20:03:08.967Z,76.23
2023-09-17T20:05:36.704Z,75.32
2023-09-17T20:08:08.042Z,74.98
2023-09-17T20:10:37.403Z,75.64
2023-09-17T20:13:04.763Z,75.56
2023-09-17T20:15:34.005Z,74.99
2023-09-17T20:18:00.628Z,74.44
2023-09-17T20:20:28.913Z,75.62
2023-09-17T20:22:55.854Z,76.28
2023-09-17T20:25:22.590Z,76.16
2023-09-17T20:27:58.009Z,75.12
2023-09-17T20:30:26.879Z,75.15
2023-09-17T20:32:55.565Z,77.00
2023-09-17T20:35:22.678Z,76.45
2023-09-17T20:37:49.869Z,76.97
2023-09-17T20:40:16.985Z,76.02
2023-09-17T20:42:44.021Z,75.67
2023-09-17T20:45:11.204Z,75.69
2023-09-17T20:47:39.075Z,75.95
2023-09-17T20:50:08.222Z,75.95
2023-09-17T20:52:35.129Z,75.87
2023-09-17T20:55:02.782Z,76.36
2023-09-17T20:57:30.172Z,75.84
2023-09-17T20:59:57.469Z,75.61
2023-09-17T21:02:24.852Z,76.67
2023-09-17T21:04:57.258Z,77.60
2023-09-17T21:07:25.816Z,76.44
2023-09-17T21:09:56.964Z,77.28
2023-09-17T21:12:23.890Z,76.61
2023-09-17T21:14:51.140Z,76.76
2023-09-17T21:17:17.839Z,76.76
2023-09-17T21:19:44.431Z,76.38
2023-09-17T21:22:11.761Z,77.36
2023-09-17T21:24:38.966Z,78.34
2023-09-17T21:27:05.701Z,78.28
2023-09-17T21:29:36.557Z,77.79
2023-09-17T21:32:04.009Z,77.37
2023-09-17T21:34:30.904Z,77.33
2023-09-17T21:36:57.690Z,78.35
2023-09-17T21:39:31.640Z,77.82
2023-09-17T21:41:58.798Z,77.57
2023-09-17T21:44:25.539Z,77.59
2023-09-17T21:46:55.621Z,78.05
2023-09-17T21:49:22.819Z,78.02
2023-09-17T21:51:49.560Z,78.25
2023-09-17T21:54:16.317Z,77.47
2023-09-17T21:56:43.553Z,77.37
2023-09-17T21:59:10.525Z,78.75
2023-09-17T22:01:37.417Z,77.89
2023-09-17T22:04:04.538Z,77.35
2023-09-17T22:06:31.403Z,78.32
2023-09-17T22:08:58.358Z,77.90
2023-09-17T22:11:25.130Z,78.09
2023-09-17T22:13:52.504Z,78.69
2023-09-17T22:16:19.864Z,78.41
2023-09-17T22:18:46.667Z,78.12
2023-09-17T22:21:13.381Z,78.33
2023-09-17T22:23:40.180Z,79.15
2023-09-17T22:26:08.383Z,78.45
2023-09-17T22:28:35.382Z,78.21
2023-09-17T22:31:12.753Z,78.86
2023-09-17T22:33:41.623Z,79.40
2023-09-17T22:36:09.859Z,78.87
2023-09-17T22:38:42.773Z,79.20
2023-09-17T22:41:19.876Z,79.95
2023-09-17T22:43:48.254Z,79.72
2023-09-17T22:46:19.677Z,80.48
2023-09-17T22:48:54.978Z,79.81
2023-09-17T22:51:23.224Z,80.47
2023-09-17T22:53:53.613Z,79.18
2023-09-17T22:56:20.331Z,79.15
2023-09-17T22:58:47.291Z,79.00
2023-09-17T23:01:17.956Z,78.63
2023-09-17T23:03:45.492Z,78.55
2023-09-17T23:06:13.083Z,78.63
2023-09-17T23:08:40.360Z,79.15
2023-09-17T23:11:08.167Z,78.92
2023-09-17T23:13:36.526Z,79.60
2023-09-17T23:16:05.749Z,79.46
2023-09-17T23:18:33.057Z,79.19
2023-09-17T23:21:00.429Z,78.93
2023-09-17T23:23:27.176Z,78.95
2023-09-17T23:25:55.218Z,80.33
2023-09-17T23:28:23.800Z,80.52
2023-09-17T23:30:51.620Z,79.75
2023-09-17T23:33:19.293Z,81.56
2023-09-17T23:35:47.861Z,80.66
2023-09-17T23:38:14.452Z,81.34
2023-09-17T23:40:41.045Z,81.79
2023-09-17T23:43:12.383Z,81.89
2023-09-17T23:45:39.842Z,80.67
2023-09-17T23:48:07.265Z,81.05
2023-09-17T23:50:34.103Z,80.81
2023-09-17T23:53:03.987Z,80.62
2023-09-17T23:55:31.256Z,81.37
2023-09-17T23:57:58.339Z,80.91
